createdAt,value
2022-09-12T00:00:44.592Z,11.29
2022-09-12T00:03:16.977Z,11.26
2022-09-12T00:05:49.329Z,11.23
2022-09-12T00:08:21.727Z,11.22
2022-09-12T00:10:54.126Z,11.21
2022-09-12T00:13:26.737Z,11.20
2022-09-12T00:15:59.116Z,11.16
2022-09-12T00:18:32.524Z,11.14
2022-09-12T00:21:05.227Z,11.12
2022-09-12T00:23:37.724Z,11.09
2022-09-12T00:26:10.304Z,11.06
2022-09-12T00:28:42.884Z,11.02
2022-09-12T00:31:18.717Z,10.99
2022-09-12T00:33:52.561Z,10.99
2022-09-12T00:36:26.392Z,11.02
2022-09-12T00:38:59.137Z,11.01
2022-09-12T00:41:35.012Z,10.99
2022-09-12T00:44:10.452Z,11.00
2022-09-12T00:46:52.879Z,10.97
2022-09-12T00:49:47.594Z,10.93
2022-09-12T00:52:26.404Z,10.90
2022-09-12T00:55:12.956Z,10.86
2022-09-12T00:58:12.628Z,10.82
2022-09-12T01:00:47.114Z,10.79
2022-09-12T01:03:22.308Z,10.77
2022-09-12T01:06:07.257Z,10.77
2022-09-12T01:08:41.156Z,10.76
2022-09-12T01:11:15.593Z,10.81
2022-09-12T01:13:49.622Z,10.81
2022-09-12T01:16:22.183Z,10.78
2022-09-12T01:19:06.623Z,10.78
2022-09-12T01:21:48.645Z,10.82
2022-09-12T01:24:46.854Z,10.82
2022-09-12T01:27:31.616Z,10.81
2022-09-12T01:30:04.508Z,10.84
2022-09-12T01:32:55.299Z,10.85
2022-09-12T01:35:43.013Z,10.85
2022-09-12T01:38:21.073Z,10.84
2022-09-12T01:40:59.480Z,10.84
2022-09-12T01:43:38.085Z,10.88
2022-09-12T01:46:19.329Z,10.84
2022-09-12T01:49:12.300Z,10.81
2022-09-12T01:51:55.276Z,10.78
2022-09-12T01:54:36.353Z,10.74
2022-09-12T01:57:21.209Z,10.72
2022-09-12T01:59:59.087Z,10.68
2022-09-12T02:02:38.308Z,10.68
2022-09-12T02:05:20.161Z,10.67
2022-09-12T02:08:03.877Z,10.57
2022-09-12T02:10:51.441Z,10.55
2022-09-12T02:13:34.524Z,10.54
2022-09-12T02:16:23.638Z,10.54
2022-09-12T02:19:03.390Z,10.51
2022-09-12T02:21:39.525Z,10.50
2022-09-12T02:24:15.151Z,10.53
2022-09-12T02:27:03.260Z,10.49
2022-09-12T02:29:36.348Z,10.48
2022-09-12T02:32:22.201Z,10.45
2022-09-12T02:35:13.619Z,10.44
2022-09-12T02:38:00.005Z,10.41
2022-09-12T02:40:33.430Z,10.41
2022-09-12T02:43:06.433Z,10.39
2022-09-12T02:45:38.940Z,10.38
2022-09-12T02:48:23.467Z,10.40
2022-09-12T02:50:56.362Z,10.41
2022-09-12T02:53:28.908Z,10.45
2022-09-12T02:56:01.614Z,10.45
2022-09-12T02:58:34.524Z,10.44
2022-09-12T03:01:19.013Z,10.43
2022-09-12T03:04:08.735Z,10.43
2022-09-12T03:06:41.019Z,10.41
2022-09-12T03:09:27.511Z,10.35
2022-09-12T03:12:23.043Z,10.35
2022-09-12T03:15:21.793Z,10.35
2022-09-12T03:18:01.383Z,10.30
2022-09-12T03:20:55.045Z,10.30
2022-09-12T03:23:43.613Z,10.31
2022-09-12T03:26:23.210Z,10.29
2022-09-12T03:28:56.759Z,10.32
2022-09-12T03:31:29.296Z,10.32
2022-09-12T03:34:02.025Z,10.34
2022-09-12T03:36:34.403Z,10.36
2022-09-12T03:39:06.808Z,10.35
2022-09-12T03:41:39.615Z,10.35
2022-09-12T03:44:12.028Z,10.34
2022-09-12T03:46:44.756Z,10.36
2022-09-12T03:49:17.570Z,10.35
2022-09-12T03:51:49.935Z,10.36
2022-09-12T03:54:22.383Z,10.39
2022-09-12T03:56:54.758Z,10.42
2022-09-12T03:59:27.144Z,10.44
2022-09-12T04:01:59.841Z,10.44
2022-09-12T04:04:32.684Z,10.45
2022-09-12T04:07:05.099Z,10.46
2022-09-12T04:09:37.565Z,10.50
2022-09-12T04:12:10.188Z,10.53
2022-09-12T04:14:42.620Z,10.54
2022-09-12T04:17:16.152Z,10.56
2022-09-12T04:19:48.505Z,10.58
2022-09-12T04:22:21.011Z,10.58
2022-09-12T04:24:53.403Z,10.59
2022-09-12T04:27:25.816Z,10.58
2022-09-12T04:30:00.245Z,10.57
2022-09-12T04:32:32.786Z,10.58
2022-09-12T04:35:05.431Z,10.61
2022-09-12T04:37:37.846Z,10.63
2022-09-12T04:40:10.364Z,10.64
2022-09-12T04:42:42.745Z,10.66
2022-09-12T04:45:16.633Z,10.68
2022-09-12T04:47:49.028Z,10.70
2022-09-12T04:50:21.650Z,10.72
2022-09-12T04:52:54.690Z,10.72
2022-09-12T04:55:27.394Z,10.71
2022-09-12T04:58:00.959Z,10.72
2022-09-12T05:00:33.339Z,10.71
2022-09-12T05:03:05.755Z,10.73
2022-09-12T05:05:38.133Z,10.74
2022-09-12T05:08:10.494Z,10.74
2022-09-12T05:10:42.859Z,10.74
2022-09-12T05:13:15.239Z,10.77
2022-09-12T05:15:57.871Z,10.80
2022-09-12T05:18:34.821Z,10.82
2022-09-12T05:21:09.397Z,10.87
2022-09-12T05:23:42.417Z,10.90
2022-09-12T05:26:15.910Z,10.93
2022-09-12T05:28:49.641Z,10.95
2022-09-12T05:31:27.327Z,10.97
2022-09-12T05:33:59.689Z,10.97
2022-09-12T05:36:32.152Z,11.00
2022-09-12T05:39:04.767Z,11.04
2022-09-12T05:41:37.264Z,11.06
2022-09-12T05:44:14.161Z,11.10
2022-09-12T05:46:50.353Z,11.13
2022-09-12T05:49:22.791Z,11.18
2022-09-12T05:51:55.186Z,11.23
2022-09-12T05:54:31.326Z,11.28
2022-09-12T05:57:04.228Z,11.32
2022-09-12T05:59:36.811Z,11.33
2022-09-12T06:02:10.953Z,11.39
2022-09-12T06:04:43.568Z,11.42
2022-09-12T06:07:15.936Z,11.48
2022-09-12T06:09:48.289Z,11.51
2022-09-12T06:12:20.646Z,11.56
2022-09-12T06:14:53.830Z,11.60
2022-09-12T06:17:26.486Z,11.63
2022-09-12T06:19:59.010Z,11.64
2022-09-12T06:22:31.604Z,11.65
2022-09-12T06:25:04.968Z,11.64
2022-09-12T06:27:37.323Z,11.65
2022-09-12T06:30:10.220Z,11.66
2022-09-12T06:32:43.044Z,11.67
2022-09-12T06:35:15.432Z,11.70
2022-09-12T06:37:48.289Z,11.72
2022-09-12T06:40:20.748Z,11.75
2022-09-12T06:42:53.132Z,11.82
2022-09-12T06:45:26.085Z,11.88
2022-09-12T06:47:58.463Z,11.96
2022-09-12T06:50:30.999Z,12.05
2022-09-12T06:53:03.424Z,12.12
2022-09-12T06:55:35.880Z,12.22
2022-09-12T06:58:08.396Z,12.26
2022-09-12T07:00:40.761Z,12.33
2022-09-12T07:03:13.131Z,12.40
2022-09-12T07:05:46.310Z,12.42
2022-09-12T07:08:18.705Z,12.47
2022-09-12T07:10:51.160Z,12.50
2022-09-12T07:13:23.582Z,12.52
2022-09-12T07:15:55.980Z,12.55
2022-09-12T07:18:29.392Z,12.60
2022-09-12T07:21:02.778Z,12.68
2022-09-12T07:23:35.189Z,12.73
2022-09-12T07:26:10.271Z,12.79
2022-09-12T07:28:43.117Z,12.87
2022-09-12T07:31:18.245Z,12.95
2022-09-12T07:33:54.590Z,13.06
2022-09-12T07:36:27.749Z,13.16
2022-09-12T07:39:00.135Z,13.28
2022-09-12T07:41:35.915Z,13.40
2022-09-12T07:44:08.351Z,13.49
2022-09-12T07:46:40.757Z,13.60
2022-09-12T07:49:13.288Z,13.74
2022-09-12T07:51:45.822Z,13.82
2022-09-12T07:54:18.290Z,13.94
2022-09-12T07:56:50.701Z,14.08
2022-09-12T07:59:48.423Z,14.20
2022-09-12T08:02:17.443Z,14.31
2022-09-12T08:04:51.353Z,14.46
2022-09-12T08:07:23.955Z,14.58
2022-09-12T08:09:56.814Z,14.67
2022-09-12T08:12:29.860Z,14.79
2022-09-12T08:15:02.442Z,14.93
2022-09-12T08:17:35.059Z,15.10
2022-09-12T08:20:10.481Z,15.19
2022-09-12T08:22:43.350Z,15.28
2022-09-12T08:25:15.879Z,15.43
2022-09-12T08:27:48.321Z,15.52
2022-09-12T08:30:20.682Z,15.63
2022-09-12T08:32:53.140Z,15.76
2022-09-12T08:35:25.519Z,15.90
2022-09-12T08:37:58.130Z,16.01
2022-09-12T08:40:30.617Z,16.16
2022-09-12T08:43:11.944Z,16.26
2022-09-12T08:46:00.623Z,16.40
2022-09-12T08:48:33.534Z,16.58
2022-09-12T08:51:10.192Z,16.69
2022-09-12T08:53:46.163Z,16.88
2022-09-12T08:56:18.813Z,17.06
2022-09-12T08:58:51.197Z,17.21
2022-09-12T09:01:44.372Z,17.33
2022-09-12T09:04:20.475Z,17.53
2022-09-12T09:07:01.776Z,17.66
2022-09-12T09:10:07.663Z,17.76
2022-09-12T09:13:06.348Z,17.91
2022-09-12T09:16:04.034Z,18.09
2022-09-12T09:18:37.214Z,18.22
2022-09-12T09:21:15.780Z,18.34
2022-09-12T09:23:53.626Z,18.44
2022-09-12T09:26:35.936Z,18.53
2022-09-12T09:29:18.361Z,18.60
2022-09-12T09:31:57.822Z,18.71
2022-09-12T09:34:34.196Z,18.71
2022-09-12T09:37:25.709Z,18.89
2022-09-12T09:40:24.408Z,18.93
2022-09-12T09:43:00.272Z,18.94
2022-09-12T09:45:32.761Z,18.98
2022-09-12T09:48:10.995Z,19.06
2022-09-12T09:50:45.365Z,19.12
2022-09-12T09:53:53.268Z,19.26
2022-09-12T09:56:33.691Z,19.43
2022-09-12T09:59:26.395Z,19.52
2022-09-12T10:02:03.815Z,19.60
2022-09-12T10:04:41.816Z,19.66
2022-09-12T10:07:19.760Z,19.69
2022-09-12T10:10:15.287Z,19.82
2022-09-12T10:12:47.649Z,19.93
2022-09-12T10:15:22.800Z,20.05
2022-09-12T10:17:56.563Z,20.11
2022-09-12T10:20:30.977Z,20.15
2022-09-12T10:23:19.092Z,20.18
2022-09-12T10:25:56.439Z,20.26
2022-09-12T10:28:35.640Z,20.28
2022-09-12T10:31:12.388Z,20.32
2022-09-12T10:33:53.710Z,20.43
2022-09-12T10:36:35.076Z,20.47
2022-09-12T10:39:18.406Z,20.51
2022-09-12T10:41:50.791Z,20.59
2022-09-12T10:44:31.314Z,20.73
2022-09-12T10:47:21.409Z,20.81
2022-09-12T10:49:54.009Z,20.83
2022-09-12T10:52:27.273Z,20.90
2022-09-12T10:54:59.768Z,21.04
2022-09-12T10:57:51.065Z,21.06
2022-09-12T11:00:27.875Z,21.13
2022-09-12T11:03:20.703Z,21.20
2022-09-12T11:05:59.838Z,21.23
2022-09-12T11:08:40.235Z,21.23
2022-09-12T11:11:26.865Z,21.30
2022-09-12T11:14:32.720Z,21.46
2022-09-12T11:17:25.669Z,21.52
2022-09-12T11:20:13.300Z,21.63
2022-09-12T11:23:00.402Z,21.72
2022-09-12T11:25:48.062Z,21.73
2022-09-12T11:28:53.292Z,21.86
2022-09-12T11:31:41.637Z,21.93
2022-09-12T11:34:23.195Z,22.01
2022-09-12T11:37:08.563Z,22.07
2022-09-12T11:39:46.826Z,22.23
2022-09-12T11:42:26.402Z,22.24
2022-09-12T11:45:13.674Z,22.20
2022-09-12T11:47:57.731Z,22.24
2022-09-12T11:50:31.788Z,22.35
2022-09-12T11:53:18.998Z,22.47
2022-09-12T11:56:01.540Z,22.43
2022-09-12T11:58:36.508Z,22.63
2022-09-12T12:01:20.948Z,22.70
2022-09-12T12:03:55.443Z,22.72
2022-09-12T12:06:32.388Z,22.71
2022-09-12T12:09:05.349Z,22.80
2022-09-12T12:11:43.837Z,22.86
2022-09-12T12:14:24.895Z,22.93
2022-09-12T12:16:57.872Z,23.05
2022-09-12T12:19:36.094Z,22.96
2022-09-12T12:22:16.970Z,23.02
2022-09-12T12:25:22.931Z,22.93
2022-09-12T12:28:01.340Z,22.92
2022-09-12T12:30:36.413Z,22.94
2022-09-12T12:33:09.976Z,23.11
2022-09-12T12:35:47.874Z,23.20
2022-09-12T12:38:29.685Z,23.29
2022-09-12T12:41:17.369Z,23.37
2022-09-12T12:43:57.511Z,23.38
2022-09-12T12:46:30.236Z,23.37
2022-09-12T12:49:22.848Z,23.45
2022-09-12T12:51:58.904Z,23.46
2022-09-12T12:54:52.643Z,23.48
2022-09-12T12:57:30.561Z,23.49
2022-09-12T13:00:25.592Z,23.47
2022-09-12T13:03:04.254Z,23.49
2022-09-12T13:05:42.849Z,23.56
2022-09-12T13:08:18.188Z,23.60
2022-09-12T13:10:51.667Z,23.61
2022-09-12T13:13:31.874Z,23.63
2022-09-12T13:16:04.503Z,23.70
2022-09-12T13:18:48.303Z,23.70
2022-09-12T13:21:22.182Z,23.72
2022-09-12T13:24:03.326Z,23.80
2022-09-12T13:26:42.004Z,23.92
2022-09-12T13:29:18.643Z,23.94
2022-09-12T13:32:03.031Z,23.85
2022-09-12T13:34:44.646Z,23.90
2022-09-12T13:37:30.815Z,23.95
2022-09-12T13:40:21.860Z,24.02
2022-09-12T13:43:11.849Z,24.19
2022-09-12T13:45:46.913Z,24.30
2022-09-12T13:48:25.269Z,24.14
2022-09-12T13:51:00.492Z,24.16
2022-09-12T13:53:43.924Z,24.09
2022-09-12T13:56:17.788Z,24.03
2022-09-12T13:58:59.135Z,24.13
2022-09-12T14:01:38.638Z,24.19
2022-09-12T14:04:43.721Z,24.29
2022-09-12T14:07:24.620Z,24.33
2022-09-12T14:09:59.545Z,24.44
2022-09-12T14:12:34.813Z,24.42
2022-09-12T14:15:19.580Z,24.50
2022-09-12T14:17:55.125Z,24.63
2022-09-12T14:20:33.007Z,24.68
2022-09-12T14:23:29.101Z,24.57
2022-09-12T14:26:05.628Z,24.45
2022-09-12T14:28:43.095Z,24.32
2022-09-12T14:31:15.658Z,24.22
2022-09-12T14:33:53.528Z,24.17
2022-09-12T14:36:31.552Z,24.23
2022-09-12T14:39:07.937Z,24.17
2022-09-12T14:41:41.840Z,24.25
2022-09-12T14:44:23.340Z,24.18
2022-09-12T14:47:00.447Z,24.19
2022-09-12T14:49:36.500Z,24.24
2022-09-12T14:52:29.477Z,24.19
2022-09-12T14:55:19.255Z,24.30
2022-09-12T14:58:13.562Z,24.42
2022-09-12T15:00:54.370Z,24.53
2022-09-12T15:03:37.662Z,24.55
2022-09-12T15:06:24.548Z,24.39
2022-09-12T15:08:59.847Z,24.43
2022-09-12T15:11:33.686Z,24.44
2022-09-12T15:14:15.873Z,24.55
2022-09-12T15:16:48.232Z,24.72
2022-09-12T15:19:20.853Z,24.82
2022-09-12T15:21:53.284Z,24.81
2022-09-12T15:24:25.676Z,24.89
2022-09-12T15:26:58.404Z,24.85
2022-09-12T15:29:30.736Z,24.76
2022-09-12T15:32:04.055Z,24.85
2022-09-12T15:34:36.456Z,24.90
2022-09-12T15:37:14.038Z,24.74
2022-09-12T15:39:46.860Z,24.72
2022-09-12T15:42:27.244Z,24.83
2022-09-12T15:45:02.566Z,24.85
2022-09-12T15:47:35.294Z,25.02
2022-09-12T15:50:07.993Z,25.02
2022-09-12T15:52:41.270Z,25.20
2022-09-12T15:55:19.926Z,25.27
2022-09-12T15:57:52.262Z,25.48
2022-09-12T16:00:25.046Z,25.50
2022-09-12T16:02:57.627Z,25.69
2022-09-12T16:05:30.196Z,26.06
2022-09-12T16:08:02.768Z,26.01
2022-09-12T16:10:35.393Z,25.94
2022-09-12T16:13:07.805Z,26.30
2022-09-12T16:15:40.847Z,26.66
2022-09-12T16:18:13.817Z,26.82
2022-09-12T16:20:46.237Z,27.02
2022-09-12T16:23:18.608Z,27.03
2022-09-12T16:25:57.814Z,27.19
2022-09-12T16:28:32.532Z,27.09
2022-09-12T16:31:06.273Z,27.21
2022-09-12T16:33:39.349Z,27.06
2022-09-12T16:36:14.772Z,26.97
2022-09-12T16:38:54.332Z,26.73
2022-09-12T16:41:26.792Z,26.43
2022-09-12T16:43:59.329Z,26.07
2022-09-12T16:46:31.837Z,25.79
2022-09-12T16:49:05.915Z,25.48
2022-09-12T16:51:38.479Z,25.39
2022-09-12T16:54:10.927Z,25.38
2022-09-12T16:56:43.999Z,25.19
2022-09-12T16:59:16.757Z,25.01
2022-09-12T17:01:49.164Z,24.78
2022-09-12T17:04:23.672Z,24.44
2022-09-12T17:06:59.288Z,24.13
2022-09-12T17:09:31.654Z,23.85
2022-09-12T17:12:04.227Z,23.58
2022-09-12T17:14:36.616Z,23.31
2022-09-12T17:17:09.123Z,23.08
2022-09-12T17:19:43.315Z,22.90
2022-09-12T17:22:15.659Z,22.72
2022-09-12T17:24:48.037Z,22.57
2022-09-12T17:27:20.396Z,22.42
2022-09-12T17:29:52.840Z,22.46
2022-09-12T17:32:25.289Z,22.44
2022-09-12T17:34:57.855Z,22.35
2022-09-12T17:37:30.264Z,22.19
2022-09-12T17:40:03.947Z,21.96
2022-09-12T17:42:36.378Z,21.75
2022-09-12T17:45:09.309Z,21.60
2022-09-12T17:47:42.964Z,21.42
2022-09-12T17:50:31.371Z,21.23
2022-09-12T17:53:06.371Z,21.04
2022-09-12T17:55:39.398Z,20.84
2022-09-12T17:58:12.548Z,20.65
2022-09-12T18:01:03.654Z,20.51
2022-09-12T18:03:36.075Z,20.38
2022-09-12T18:06:08.541Z,20.23
2022-09-12T18:08:41.309Z,20.11
2022-09-12T18:11:13.685Z,20.01
2022-09-12T18:13:46.136Z,19.90
2022-09-12T18:16:18.588Z,19.79
2022-09-12T18:18:51.252Z,19.68
2022-09-12T18:21:23.649Z,19.58
2022-09-12T18:23:58.939Z,19.45
2022-09-12T18:26:32.540Z,19.35
2022-09-12T18:29:04.961Z,19.24
2022-09-12T18:31:37.411Z,19.13
2022-09-12T18:34:14.569Z,19.05
2022-09-12T18:36:49.208Z,18.99
2022-09-12T18:39:25.438Z,18.90
2022-09-12T18:42:00.025Z,18.85
2022-09-12T18:44:32.600Z,18.79
2022-09-12T18:47:05.221Z,18.78
2022-09-12T18:49:37.548Z,18.73
2022-09-12T18:52:10.259Z,18.67
2022-09-12T18:54:42.661Z,18.62
2022-09-12T18:57:15.012Z,18.56
2022-09-12T18:59:47.741Z,18.46
2022-09-12T19:02:20.080Z,18.38
2022-09-12T19:04:52.429Z,18.27
2022-09-12T19:07:24.822Z,18.17
2022-09-12T19:09:57.345Z,18.07
2022-09-12T19:12:29.701Z,17.94
2022-09-12T19:15:02.695Z,17.86
2022-09-12T19:17:35.669Z,17.77
2022-09-12T19:20:08.702Z,17.67
2022-09-12T19:22:41.057Z,17.54
2022-09-12T19:25:13.574Z,17.44
2022-09-12T19:27:45.900Z,17.36
2022-09-12T19:30:18.281Z,17.35
2022-09-12T19:32:50.660Z,17.32
2022-09-12T19:35:23.052Z,17.28
2022-09-12T19:37:55.502Z,17.27
2022-09-12T19:40:27.861Z,17.22
2022-09-12T19:43:00.212Z,17.18
2022-09-12T19:45:32.863Z,17.15
2022-09-12T19:48:05.199Z,17.10
2022-09-12T19:50:37.531Z,17.06
2022-09-12T19:53:09.885Z,17.01
2022-09-12T19:55:42.755Z,16.96
2022-09-12T19:58:15.535Z,16.90
2022-09-12T20:00:47.945Z,16.85
2022-09-12T20:03:20.340Z,16.80
2022-09-12T20:05:52.687Z,16.76
2022-09-12T20:08:25.037Z,16.73
2022-09-12T20:10:57.406Z,16.70
2022-09-12T20:13:29.961Z,16.65
2022-09-12T20:16:19.042Z,16.60
2022-09-12T20:18:56.747Z,16.56
2022-09-12T20:21:32.531Z,16.50
2022-09-12T20:24:06.640Z,16.46
2022-09-12T20:26:40.526Z,16.44
2022-09-12T20:29:13.138Z,16.40
2022-09-12T20:31:46.045Z,16.37
2022-09-12T20:34:21.200Z,16.33
2022-09-12T20:36:53.568Z,16.28
2022-09-12T20:39:25.940Z,16.23
2022-09-12T20:41:58.327Z,16.17
2022-09-12T20:44:30.709Z,16.12
2022-09-12T20:47:03.185Z,16.10
2022-09-12T20:49:35.571Z,16.05
2022-09-12T20:52:07.994Z,16.01
2022-09-12T20:54:40.392Z,15.97
2022-09-12T20:57:12.752Z,15.94
2022-09-12T20:59:45.186Z,15.89
2022-09-12T21:02:17.768Z,15.85
2022-09-12T21:04:50.772Z,15.82
2022-09-12T21:07:23.183Z,15.81
2022-09-12T21:09:55.876Z,15.80
2022-09-12T21:12:28.255Z,15.80
2022-09-12T21:15:00.592Z,15.75
2022-09-12T21:17:32.937Z,15.71
2022-09-12T21:20:10.628Z,15.71
2022-09-12T21:22:43.708Z,15.68
2022-09-12T21:25:16.228Z,15.72
2022-09-12T21:27:48.589Z,15.77
2022-09-12T21:30:21.080Z,15.83
2022-09-12T21:32:53.415Z,15.93
2022-09-12T21:35:25.928Z,16.04
2022-09-12T21:37:58.476Z,16.13
2022-09-12T21:40:31.092Z,16.21
2022-09-12T21:43:04.297Z,16.28
2022-09-12T21:45:36.659Z,16.33
2022-09-12T21:48:09.022Z,16.39
2022-09-12T21:50:41.366Z,16.42
2022-09-12T21:53:13.742Z,16.46
2022-09-12T21:55:46.097Z,16.50
2022-09-12T21:58:18.647Z,16.53
2022-09-12T22:00:51.151Z,16.54
2022-09-12T22:03:23.683Z,16.58
2022-09-12T22:06:04.695Z,16.60
2022-09-12T22:08:38.699Z,16.62
2022-09-12T22:11:11.695Z,16.67
2022-09-12T22:13:44.237Z,16.69
2022-09-12T22:16:17.703Z,16.70
2022-09-12T22:18:50.710Z,16.72
2022-09-12T22:21:24.322Z,16.74
2022-09-12T22:24:15.390Z,16.78
2022-09-12T22:26:47.773Z,16.80
2022-09-12T22:29:21.659Z,16.82
2022-09-12T22:31:54.177Z,16.82
2022-09-12T22:34:27.861Z,16.83
2022-09-12T22:37:01.177Z,16.82
2022-09-12T22:39:33.583Z,16.81
2022-09-12T22:42:06.372Z,16.80
2022-09-12T22:44:38.761Z,16.78
2022-09-12T22:47:11.429Z,16.76
2022-09-12T22:49:43.979Z,16.72
2022-09-12T22:52:16.450Z,16.71
2022-09-12T22:54:49.303Z,16.69
2022-09-12T22:57:21.643Z,16.65
2022-09-12T22:59:54.015Z,16.61
2022-09-12T23:02:26.373Z,16.58
2022-09-12T23:04:59.032Z,16.55
2022-09-12T23:07:31.603Z,16.50
2022-09-12T23:10:04.392Z,16.46
2022-09-12T23:12:36.825Z,16.42
2022-09-12T23:15:10.098Z,16.40
2022-09-12T23:17:42.600Z,16.37
2022-09-12T23:20:14.946Z,16.36
2022-09-12T23:22:47.367Z,16.33
2022-09-12T23:25:21.973Z,16.33
2022-09-12T23:27:54.310Z,16.33
2022-09-12T23:30:26.682Z,16.32
2022-09-12T23:32:59.032Z,16.29
2022-09-12T23:35:31.580Z,16.29
2022-09-12T23:38:04.063Z,16.28
2022-09-12T23:40:36.537Z,16.27
2022-09-12T23:43:08.921Z,16.26
2022-09-12T23:45:41.301Z,16.27
2022-09-12T23:48:13.831Z,16.27
2022-09-12T23:50:47.589Z,16.26
2022-09-12T23:53:21.243Z,16.28
2022-09-12T23:55:53.749Z,16.28
2022-09-12T23:58:26.128Z,16.29
